sensor_id;sensor_type;location;lat;lon;timestamp;P1;durP1;ratioP1;P2;durP2;ratioP2
56503;SDS011;48812;51.606;-0.114;2023-04-15T00:01:45;1.58;;;1.20;;
56503;SDS011;48812;51.606;-0.114;2023-04-15T00:08:45;1.35;;;1.02;;
56503;SDS011;48812;51.606;-0.114;2023-04-15T00:11:23;1.65;;;1.15;;
56503;SDS011;48812;51.606;-0.114;2023-04-15T00:15:27;1.30;;;1.10;;
56503;SDS011;48812;51.606;-0.114;2023-04-15T00:19:04;2.05;;;1.00;;
56503;SDS011;48812;51.606;-0.114;2023-04-15T00:22:47;1.85;;;1.30;;
56503;SDS011;48812;51.606;-0.114;2023-04-15T00:31:16;1.05;;;0.90;;
56503;SDS011;48812;51.606;-0.114;2023-04-15T00:35:06;1.20;;;1.00;;
56503;SDS011;48812;51.606;-0.114;2023-04-15T00:45:58;1.02;;;0.90;;
56503;SDS011;48812;51.606;-0.114;2023-04-15T00:48:32;1.33;;;1.10;;
56503;SDS011;48812;51.606;-0.114;2023-04-15T00:51:04;1.80;;;1.17;;
56503;SDS011;48812;51.606;-0.114;2023-04-15T00:53:38;1.85;;;1.10;;
56503;SDS011;48812;51.606;-0.114;2023-04-15T00:56:10;1.38;;;1.10;;
56503;SDS011;48812;51.606;-0.114;2023-04-15T00:58:45;1.80;;;0.95;;
56503;SDS011;48812;51.606;-0.114;2023-04-15T01:01:19;1.55;;;1.02;;
56503;SDS011;48812;51.606;-0.114;2023-04-15T01:03:56;1.67;;;1.10;;
56503;SDS011;48812;51.606;-0.114;2023-04-15T01:06:31;1.38;;;1.00;;
56503;SDS011;48812;51.606;-0.114;2023-04-15T01:09:04;1.33;;;1.13;;
56503;SDS011;48812;51.606;-0.114;2023-04-15T01:11:37;1.55;;;1.17;;
56503;SDS011;48812;51.606;-0.114;2023-04-15T01:14:12;1.45;;;0.93;;
56503;SDS011;48812;51.606;-0.114;2023-04-15T01:16:49;2.25;;;1.10;;
56503;SDS011;48812;51.606;-0.114;2023-04-15T01:19:22;1.30;;;1.05;;
56503;SDS011;48812;51.606;-0.114;2023-04-15T01:21:57;1.10;;;1.00;;
56503;SDS011;48812;51.606;-0.114;2023-04-15T01:24:30;1.38;;;1.00;;
56503;SDS011;48812;51.606;-0.114;2023-04-15T01:27:14;1.20;;;1.10;;
56503;SDS011;48812;51.606;-0.114;2023-04-15T01:35:18;1.20;;;0.90;;
56503;SDS011;48812;51.606;-0.114;2023-04-15T01:43:00;1.10;;;0.85;;
56503;SDS011;48812;51.606;-0.114;2023-04-15T01:46:35;1.35;;;1.10;;
56503;SDS011;48812;51.606;-0.114;2023-04-15T01:50:23;1.52;;;1.00;;
56503;SDS011;48812;51.606;-0.114;2023-04-15T01:53:11;1.20;;;0.80;;
56503;SDS011;48812;51.606;-0.114;2023-04-15T01:55:48;2.08;;;0.90;;
56503;SDS011;48812;51.606;-0.114;2023-04-15T01:58:23;1.30;;;1.02;;
56503;SDS011;48812;51.606;-0.114;2023-04-15T02:00:57;1.30;;;1.00;;
56503;SDS011;48812;51.606;-0.114;2023-04-15T02:03:31;1.52;;;1.00;;
56503;SDS011;48812;51.606;-0.114;2023-04-15T02:06:06;1.05;;;0.90;;
56503;SDS011;48812;51.606;-0.114;2023-04-15T02:08:39;1.10;;;0.80;;
56503;SDS011;48812;51.606;-0.114;2023-04-15T02:11:12;0.95;;;0.85;;
56503;SDS011;48812;51.606;-0.114;2023-04-15T02:13:47;1.40;;;1.00;;
56503;SDS011;48812;51.606;-0.114;2023-04-15T02:21:28;1.10;;;0.80;;
56503;SDS011;48812;51.606;-0.114;2023-04-15T02:29:54;1.15;;;0.75;;
56503;SDS011;48812;51.606;-0.114;2023-04-15T02:32:26;1.00;;;0.70;;
56503;SDS011;48812;51.606;-0.114;2023-04-15T02:35:04;0.82;;;0.60;;
56503;SDS011;48812;51.606;-0.114;2023-04-15T02:37:38;1.27;;;0.90;;
56503;SDS011;48812;51.606;-0.114;2023-04-15T02:40:17;1.25;;;0.82;;
56503;SDS011;48812;51.606;-0.114;2023-04-15T02:42:50;1.10;;;1.00;;
56503;SDS011;48812;51.606;-0.114;2023-04-15T02:45:26;1.00;;;0.80;;
56503;SDS011;48812;51.606;-0.114;2023-04-15T02:48:05;2.40;;;1.02;;
56503;SDS011;48812;51.606;-0.114;2023-04-15T02:50:40;1.55;;;1.10;;
56503;SDS011;48812;51.606;-0.114;2023-04-15T02:53:15;0.88;;;0.80;;
56503;SDS011;48812;51.606;-0.114;2023-04-15T02:58:20;0.60;;;0.60;;
56503;SDS011;48812;51.606;-0.114;2023-04-15T03:00:53;1.50;;;0.70;;
56503;SDS011;48812;51.606;-0.114;2023-04-15T03:03:27;1.23;;;0.73;;
56503;SDS011;48812;51.606;-0.114;2023-04-15T03:06:02;1.27;;;0.90;;
56503;SDS011;48812;51.606;-0.114;2023-04-15T03:08:34;0.95;;;0.80;;
56503;SDS011;48812;51.606;-0.114;2023-04-15T03:11:07;1.10;;;1.00;;
56503;SDS011;48812;51.606;-0.114;2023-04-15T03:13:42;1.10;;;1.00;;
56503;SDS011;48812;51.606;-0.114;2023-04-15T03:16:28;1.42;;;0.90;;
56503;SDS011;48812;51.606;-0.114;2023-04-15T03:19:01;1.05;;;0.80;;
56503;SDS011;48812;51.606;-0.114;2023-04-15T03:21:38;1.02;;;0.80;;
56503;SDS011;48812;51.606;-0.114;2023-04-15T03:24:12;0.90;;;0.70;;
56503;SDS011;48812;51.606;-0.114;2023-04-15T03:26:50;0.80;;;0.80;;
56503;SDS011;48812;51.606;-0.114;2023-04-15T03:29:23;0.73;;;0.70;;
56503;SDS011;48812;51.606;-0.114;2023-04-15T03:32:09;1.05;;;0.93;;
56503;SDS011;48812;51.606;-0.114;2023-04-15T03:35:40;1.08;;;0.90;;
56503;SDS011;48812;51.606;-0.114;2023-04-15T03:39:09;1.10;;;0.80;;
56503;SDS011;48812;51.606;-0.114;2023-04-15T03:43:07;1.00;;;0.88;;
56503;SDS011;48812;51.606;-0.114;2023-04-15T03:45:42;1.85;;;0.60;;
56503;SDS011;48812;51.606;-0.114;2023-04-15T03:48:15;1.05;;;0.70;;
56503;SDS011;48812;51.606;-0.114;2023-04-15T03:50:50;0.80;;;0.60;;
56503;SDS011;48812;51.606;-0.114;2023-04-15T03:53:25;1.00;;;0.90;;
56503;SDS011;48812;51.606;-0.114;2023-04-15T03:55:57;1.00;;;0.70;;
56503;SDS011;48812;51.606;-0.114;2023-04-15T03:58:30;1.13;;;0.88;;
56503;SDS011;48812;51.606;-0.114;2023-04-15T04:01:02;1.15;;;0.80;;
56503;SDS011;48812;51.606;-0.114;2023-04-15T04:03:36;1.73;;;0.95;;
56503;SDS011;48812;51.606;-0.114;2023-04-15T04:06:11;0.80;;;0.70;;
56503;SDS011;48812;51.606;-0.114;2023-04-15T04:08:47;1.20;;;0.88;;
56503;SDS011;48812;51.606;-0.114;2023-04-15T04:11:19;1.63;;;0.80;;
56503;SDS011;48812;51.606;-0.114;2023-04-15T04:13:52;1.17;;;1.00;;
56503;SDS011;48812;51.606;-0.114;2023-04-15T04:16:25;1.23;;;0.80;;
56503;SDS011;48812;51.606;-0.114;2023-04-15T04:18:57;1.02;;;0.90;;
56503;SDS011;48812;51.606;-0.114;2023-04-15T04:21:30;0.93;;;0.73;;
56503;SDS011;48812;51.606;-0.114;2023-04-15T04:24:04;1.63;;;0.73;;
56503;SDS011;48812;51.606;-0.114;2023-04-15T04:26:37;1.10;;;0.80;;
56503;SDS011;48812;51.606;-0.114;2023-04-15T04:29:10;0.77;;;0.70;;
56503;SDS011;48812;51.606;-0.114;2023-04-15T04:31:45;0.90;;;0.73;;
56503;SDS011;48812;51.606;-0.114;2023-04-15T04:34:19;0.85;;;0.70;;
56503;SDS011;48812;51.606;-0.114;2023-04-15T04:36:52;0.80;;;0.70;;
56503;SDS011;48812;51.606;-0.114;2023-04-15T04:39:26;1.40;;;0.80;;
56503;SDS011;48812;51.606;-0.114;2023-04-15T04:42:01;0.80;;;0.70;;
56503;SDS011;48812;51.606;-0.114;2023-04-15T04:44:33;1.58;;;0.80;;
56503;SDS011;48812;51.606;-0.114;2023-04-15T04:47:06;0.87;;;0.80;;
56503;SDS011;48812;51.606;-0.114;2023-04-15T04:49:38;0.70;;;0.70;;
56503;SDS011;48812;51.606;-0.114;2023-04-15T04:54:44;0.80;;;0.80;;
56503;SDS011;48812;51.606;-0.114;2023-04-15T04:57:23;0.90;;;0.80;;
56503;SDS011;48812;51.606;-0.114;2023-04-15T04:59:56;0.70;;;0.70;;
56503;SDS011;48812;51.606;-0.114;2023-04-15T05:02:28;0.60;;;0.60;;
56503;SDS011;48812;51.606;-0.114;2023-04-15T05:05:04;0.60;;;0.55;;
56503;SDS011;48812;51.606;-0.114;2023-04-15T05:07:42;1.02;;;0.80;;
56503;SDS011;48812;51.606;-0.114;2023-04-15T05:10:14;0.70;;;0.70;;
56503;SDS011;48812;51.606;-0.114;2023-04-15T05:12:49;0.80;;;0.65;;
56503;SDS011;48812;51.606;-0.114;2023-04-15T05:15:23;0.82;;;0.70;;
56503;SDS011;48812;51.606;-0.114;2023-04-15T05:17:56;0.85;;;0.85;;
56503;SDS011;48812;51.606;-0.114;2023-04-15T05:20:28;0.60;;;0.60;;
56503;SDS011;48812;51.606;-0.114;2023-04-15T05:23:02;0.80;;;0.80;;
56503;SDS011;48812;51.606;-0.114;2023-04-15T05:25:35;0.65;;;0.65;;
56503;SDS011;48812;51.606;-0.114;2023-04-15T05:28:08;1.00;;;0.80;;
56503;SDS011;48812;51.606;-0.114;2023-04-15T05:30:42;1.00;;;0.82;;
56503;SDS011;48812;51.606;-0.114;2023-04-15T05:33:16;0.68;;;0.68;;
56503;SDS011;48812;51.606;-0.114;2023-04-15T05:35:56;0.73;;;0.73;;
56503;SDS011;48812;51.606;-0.114;2023-04-15T05:43:25;0.90;;;0.68;;
56503;SDS011;48812;51.606;-0.114;2023-04-15T05:45:57;1.47;;;0.83;;
56503;SDS011;48812;51.606;-0.114;2023-04-15T05:48:32;0.70;;;0.70;;
56503;SDS011;48812;51.606;-0.114;2023-04-15T05:51:04;0.73;;;0.60;;
56503;SDS011;48812;51.606;-0.114;2023-04-15T05:53:37;0.98;;;0.80;;
56503;SDS011;48812;51.606;-0.114;2023-04-15T05:56:12;1.40;;;0.80;;
56503;SDS011;48812;51.606;-0.114;2023-04-15T05:58:47;0.80;;;0.80;;
56503;SDS011;48812;51.606;-0.114;2023-04-15T06:01:22;0.75;;;0.70;;
56503;SDS011;48812;51.606;-0.114;2023-04-15T06:03:54;1.10;;;0.70;;
56503;SDS011;48812;51.606;-0.114;2023-04-15T06:06:31;0.80;;;0.63;;
56503;SDS011;48812;51.606;-0.114;2023-04-15T06:11:37;0.70;;;0.70;;
56503;SDS011;48812;51.606;-0.114;2023-04-15T06:14:09;0.70;;;0.68;;
56503;SDS011;48812;51.606;-0.114;2023-04-15T06:16:42;1.15;;;0.98;;
56503;SDS011;48812;51.606;-0.114;2023-04-15T06:19:15;0.93;;;0.70;;
56503;SDS011;48812;51.606;-0.114;2023-04-15T06:21:47;0.60;;;0.60;;
56503;SDS011;48812;51.606;-0.114;2023-04-15T06:24:23;0.80;;;0.60;;
56503;SDS011;48812;51.606;-0.114;2023-04-15T06:26:57;1.00;;;0.60;;
56503;SDS011;48812;51.606;-0.114;2023-04-15T06:29:29;0.70;;;0.70;;
56503;SDS011;48812;51.606;-0.114;2023-04-15T06:32:02;0.60;;;0.60;;
56503;SDS011;48812;51.606;-0.114;2023-04-15T06:34:37;1.08;;;0.70;;
56503;SDS011;48812;51.606;-0.114;2023-04-15T06:37:10;1.08;;;0.70;;
56503;SDS011;48812;51.606;-0.114;2023-04-15T06:39:46;0.80;;;0.70;;
56503;SDS011;48812;51.606;-0.114;2023-04-15T06:42:19;0.70;;;0.70;;
56503;SDS011;48812;51.606;-0.114;2023-04-15T06:44:52;1.33;;;0.88;;
56503;SDS011;48812;51.606;-0.114;2023-04-15T06:47:25;0.63;;;0.63;;
56503;SDS011;48812;51.606;-0.114;2023-04-15T06:49:59;0.70;;;0.70;;
56503;SDS011;48812;51.606;-0.114;2023-04-15T06:52:32;1.05;;;0.65;;
56503;SDS011;48812;51.606;-0.114;2023-04-15T06:55:09;0.80;;;0.80;;
56503;SDS011;48812;51.606;-0.114;2023-04-15T06:57:42;0.80;;;0.70;;
56503;SDS011;48812;51.606;-0.114;2023-04-15T07:00:14;0.80;;;0.60;;
56503;SDS011;48812;51.606;-0.114;2023-04-15T07:02:50;0.85;;;0.70;;
56503;SDS011;48812;51.606;-0.114;2023-04-15T07:05:22;1.20;;;0.70;;
56503;SDS011;48812;51.606;-0.114;2023-04-15T07:08:01;0.60;;;0.60;;
56503;SDS011;48812;51.606;-0.114;2023-04-15T07:10:34;0.80;;;0.70;;
56503;SDS011;48812;51.606;-0.114;2023-04-15T07:13:08;0.80;;;0.80;;
56503;SDS011;48812;51.606;-0.114;2023-04-15T07:15:40;1.35;;;0.60;;
56503;SDS011;48812;51.606;-0.114;2023-04-15T07:18:13;0.70;;;0.70;;
56503;SDS011;48812;51.606;-0.114;2023-04-15T07:20:45;0.70;;;0.70;;
56503;SDS011;48812;51.606;-0.114;2023-04-15T07:23:18;0.95;;;0.80;;
56503;SDS011;48812;51.606;-0.114;2023-04-15T07:25:50;1.17;;;0.70;;
56503;SDS011;48812;51.606;-0.114;2023-04-15T07:28:23;0.88;;;0.60;;
56503;SDS011;48812;51.606;-0.114;2023-04-15T07:30:56;0.80;;;0.80;;
56503;SDS011;48812;51.606;-0.114;2023-04-15T07:33:29;0.80;;;0.80;;
56503;SDS011;48812;51.606;-0.114;2023-04-15T07:36:02;0.68;;;0.68;;
56503;SDS011;48812;51.606;-0.114;2023-04-15T07:38:34;0.75;;;0.75;;
56503;SDS011;48812;51.606;-0.114;2023-04-15T07:41:07;0.70;;;0.70;;
56503;SDS011;48812;51.606;-0.114;2023-04-15T07:43:40;0.70;;;0.70;;
56503;SDS011;48812;51.606;-0.114;2023-04-15T07:46:12;0.70;;;0.70;;
56503;SDS011;48812;51.606;-0.114;2023-04-15T07:48:45;0.93;;;0.60;;
56503;SDS011;48812;51.606;-0.114;2023-04-15T07:51:18;0.80;;;0.70;;
56503;SDS011;48812;51.606;-0.114;2023-04-15T07:53:52;0.85;;;0.80;;
56503;SDS011;48812;51.606;-0.114;2023-04-15T07:56:25;0.60;;;0.60;;
56503;SDS011;48812;51.606;-0.114;2023-04-15T07:59:00;0.77;;;0.75;;
56503;SDS011;48812;51.606;-0.114;2023-04-15T08:01:35;0.73;;;0.65;;
56503;SDS011;48812;51.606;-0.114;2023-04-15T08:04:08;0.70;;;0.70;;
56503;SDS011;48812;51.606;-0.114;2023-04-15T08:09:15;0.75;;;0.75;;
56503;SDS011;48812;51.606;-0.114;2023-04-15T08:12:46;0.70;;;0.70;;
56503;SDS011;48812;51.606;-0.114;2023-04-15T08:20:48;0.70;;;0.70;;
56503;SDS011;48812;51.606;-0.114;2023-04-15T08:23:20;0.80;;;0.80;;
56503;SDS011;48812;51.606;-0.114;2023-04-15T08:26:11;1.02;;;0.93;;
56503;SDS011;48812;51.606;-0.114;2023-04-15T08:28:45;1.42;;;0.80;;
56503;SDS011;48812;51.606;-0.114;2023-04-15T08:31:32;0.63;;;0.63;;
56503;SDS011;48812;51.606;-0.114;2023-04-15T08:34:10;1.70;;;0.80;;
56503;SDS011;48812;51.606;-0.114;2023-04-15T08:36:44;0.65;;;0.65;;
56503;SDS011;48812;51.606;-0.114;2023-04-15T08:39:17;0.82;;;0.80;;
56503;SDS011;48812;51.606;-0.114;2023-04-15T08:42:00;0.82;;;0.82;;
56503;SDS011;48812;51.606;-0.114;2023-04-15T08:44:34;0.90;;;0.80;;
56503;SDS011;48812;51.606;-0.114;2023-04-15T08:47:12;0.98;;;0.88;;
56503;SDS011;48812;51.606;-0.114;2023-04-15T08:49:48;0.80;;;0.80;;
56503;SDS011;48812;51.606;-0.114;2023-04-15T08:52:25;0.80;;;0.80;;
56503;SDS011;48812;51.606;-0.114;2023-04-15T08:55:03;0.70;;;0.70;;
56503;SDS011;48812;51.606;-0.114;2023-04-15T08:58:19;0.60;;;0.60;;
56503;SDS011;48812;51.606;-0.114;2023-04-15T09:06:17;0.68;;;0.68;;
56503;SDS011;48812;51.606;-0.114;2023-04-15T09:08:53;0.90;;;0.70;;
56503;SDS011;48812;51.606;-0.114;2023-04-15T09:11:40;1.88;;;0.90;;
56503;SDS011;48812;51.606;-0.114;2023-04-15T09:19:45;0.80;;;0.70;;
56503;SDS011;48812;51.606;-0.114;2023-04-15T09:26:50;0.80;;;0.80;;
56503;SDS011;48812;51.606;-0.114;2023-04-15T09:30:18;1.05;;;0.95;;
56503;SDS011;48812;51.606;-0.114;2023-04-15T09:34:02;1.25;;;0.90;;
56503;SDS011;48812;51.606;-0.114;2023-04-15T09:39:16;1.20;;;0.90;;
56503;SDS011;48812;51.606;-0.114;2023-04-15T09:46:56;1.08;;;0.93;;
56503;SDS011;48812;51.606;-0.114;2023-04-15T09:49:37;0.90;;;0.90;;
56503;SDS011;48812;51.606;-0.114;2023-04-15T09:52:27;0.73;;;0.70;;
56503;SDS011;48812;51.606;-0.114;2023-04-15T09:55:00;0.80;;;0.80;;
56503;SDS011;48812;51.606;-0.114;2023-04-15T09:57:44;1.00;;;0.90;;
56503;SDS011;48812;51.606;-0.114;2023-04-15T10:00:19;0.80;;;0.80;;
56503;SDS011;48812;51.606;-0.114;2023-04-15T10:02:52;1.17;;;1.05;;
56503;SDS011;48812;51.606;-0.114;2023-04-15T10:05:25;0.95;;;0.90;;
56503;SDS011;48812;51.606;-0.114;2023-04-15T10:08:50;1.33;;;0.98;;
56503;SDS011;48812;51.606;-0.114;2023-04-15T10:12:56;1.27;;;0.90;;
56503;SDS011;48812;51.606;-0.114;2023-04-15T10:16:54;1.00;;;0.90;;
56503;SDS011;48812;51.606;-0.114;2023-04-15T10:20:37;1.25;;;1.08;;
56503;SDS011;48812;51.606;-0.114;2023-04-15T10:24:31;1.17;;;0.95;;
56503;SDS011;48812;51.606;-0.114;2023-04-15T10:27:41;1.10;;;1.00;;
56503;SDS011;48812;51.606;-0.114;2023-04-15T10:30:48;1.17;;;1.08;;
56503;SDS011;48812;51.606;-0.114;2023-04-15T10:34:45;0.80;;;0.80;;
56503;SDS011;48812;51.606;-0.114;2023-04-15T10:53:09;1.10;;;1.00;;
56503;SDS011;48812;51.606;-0.114;2023-04-15T10:55:41;1.53;;;1.00;;
56503;SDS011;48812;51.606;-0.114;2023-04-15T10:58:39;1.10;;;1.00;;
56503;SDS011;48812;51.606;-0.114;2023-04-15T11:01:20;0.88;;;0.88;;
56503;SDS011;48812;51.606;-0.114;2023-04-15T11:07:37;1.42;;;1.00;;
56503;SDS011;48812;51.606;-0.114;2023-04-15T11:12:55;1.30;;;1.20;;
56503;SDS011;48812;51.606;-0.114;2023-04-15T11:16:37;1.45;;;1.00;;
56503;SDS011;48812;51.606;-0.114;2023-04-15T11:19:20;1.30;;;1.20;;
56503;SDS011;48812;51.606;-0.114;2023-04-15T11:21:53;1.13;;;1.03;;
56503;SDS011;48812;51.606;-0.114;2023-04-15T11:24:25;1.30;;;1.17;;
56503;SDS011;48812;51.606;-0.114;2023-04-15T11:27:00;1.08;;;1.00;;
56503;SDS011;48812;51.606;-0.114;2023-04-15T11:29:33;1.35;;;1.25;;
56503;SDS011;48812;51.606;-0.114;2023-04-15T11:32:05;1.25;;;1.15;;
56503;SDS011;48812;51.606;-0.114;2023-04-15T11:34:46;1.50;;;1.30;;
56503;SDS011;48812;51.606;-0.114;2023-04-15T11:37:28;1.08;;;1.00;;
56503;SDS011;48812;51.606;-0.114;2023-04-15T11:40:02;1.35;;;1.20;;
56503;SDS011;48812;51.606;-0.114;2023-04-15T11:47:32;1.30;;;1.20;;
56503;SDS011;48812;51.606;-0.114;2023-04-15T12:04:47;1.20;;;1.10;;
56503;SDS011;48812;51.606;-0.114;2023-04-15T12:10:30;1.08;;;1.00;;
56503;SDS011;48812;51.606;-0.114;2023-04-15T12:13:06;1.20;;;1.10;;
56503;SDS011;48812;51.606;-0.114;2023-04-15T12:15:38;1.30;;;1.20;;
56503;SDS011;48812;51.606;-0.114;2023-04-15T12:18:18;1.75;;;1.20;;
56503;SDS011;48812;51.606;-0.114;2023-04-15T12:20:55;1.20;;;1.10;;
56503;SDS011;48812;51.606;-0.114;2023-04-15T12:29:09;1.27;;;1.17;;
56503;SDS011;48812;51.606;-0.114;2023-04-15T12:32:24;1.48;;;1.27;;
56503;SDS011;48812;51.606;-0.114;2023-04-15T12:35:58;1.58;;;1.27;;
56503;SDS011;48812;51.606;-0.114;2023-04-15T12:38:30;1.67;;;1.33;;
56503;SDS011;48812;51.606;-0.114;2023-04-15T12:41:05;1.42;;;1.20;;
56503;SDS011;48812;51.606;-0.114;2023-04-15T12:43:37;1.23;;;1.10;;
56503;SDS011;48812;51.606;-0.114;2023-04-15T12:46:12;1.40;;;1.30;;
56503;SDS011;48812;51.606;-0.114;2023-04-15T12:48:46;1.40;;;1.30;;
56503;SDS011;48812;51.606;-0.114;2023-04-15T12:55:40;1.30;;;1.20;;
56503;SDS011;48812;51.606;-0.114;2023-04-15T12:59:43;1.23;;;1.13;;
56503;SDS011;48812;51.606;-0.114;2023-04-15T13:07:15;1.15;;;1.05;;
56503;SDS011;48812;51.606;-0.114;2023-04-15T13:10:55;1.77;;;1.23;;
56503;SDS011;48812;51.606;-0.114;2023-04-15T13:18:24;1.45;;;1.30;;
56503;SDS011;48812;51.606;-0.114;2023-04-15T13:21:06;1.30;;;1.20;;
56503;SDS011;48812;51.606;-0.114;2023-04-15T13:23:41;1.40;;;1.30;;
56503;SDS011;48812;51.606;-0.114;2023-04-15T13:26:14;1.20;;;1.10;;
56503;SDS011;48812;51.606;-0.114;2023-04-15T13:28:50;1.35;;;1.25;;
56503;SDS011;48812;51.606;-0.114;2023-04-15T13:31:24;1.75;;;1.30;;
56503;SDS011;48812;51.606;-0.114;2023-04-15T13:34:00;2.00;;;1.42;;
56503;SDS011;48812;51.606;-0.114;2023-04-15T13:36:33;2.35;;;1.25;;
56503;SDS011;48812;51.606;-0.114;2023-04-15T13:39:14;1.50;;;1.40;;
56503;SDS011;48812;51.606;-0.114;2023-04-15T13:43:28;1.38;;;1.27;;
56503;SDS011;48812;51.606;-0.114;2023-04-15T13:47:30;1.48;;;1.27;;
56503;SDS011;48812;51.606;-0.114;2023-04-15T13:54:57;2.10;;;1.50;;
56503;SDS011;48812;51.606;-0.114;2023-04-15T14:03:31;1.70;;;1.50;;
56503;SDS011;48812;51.606;-0.114;2023-04-15T14:06:06;2.90;;;1.77;;
56503;SDS011;48812;51.606;-0.114;2023-04-15T14:08:41;3.10;;;1.47;;
56503;SDS011;48812;51.606;-0.114;2023-04-15T14:11:55;2.10;;;1.35;;
56503;SDS011;48812;51.606;-0.114;2023-04-15T14:28:04;1.38;;;1.20;;
56503;SDS011;48812;51.606;-0.114;2023-04-15T14:30:38;1.45;;;1.10;;
56503;SDS011;48812;51.606;-0.114;2023-04-15T14:33:13;2.10;;;1.42;;
56503;SDS011;48812;51.606;-0.114;2023-04-15T14:35:45;1.30;;;1.20;;
56503;SDS011;48812;51.606;-0.114;2023-04-15T14:38:18;1.45;;;1.10;;
56503;SDS011;48812;51.606;-0.114;2023-04-15T14:40:53;1.55;;;1.15;;
56503;SDS011;48812;51.606;-0.114;2023-04-15T14:43:26;1.48;;;1.30;;
56503;SDS011;48812;51.606;-0.114;2023-04-15T14:46:26;1.20;;;1.10;;
56503;SDS011;48812;51.606;-0.114;2023-04-15T14:54:37;1.90;;;1.33;;
56503;SDS011;48812;51.606;-0.114;2023-04-15T14:57:55;1.70;;;1.30;;
56503;SDS011;48812;51.606;-0.114;2023-04-15T15:06:36;1.30;;;1.20;;
56503;SDS011;48812;51.606;-0.114;2023-04-15T15:10:14;1.75;;;1.38;;
56503;SDS011;48812;51.606;-0.114;2023-04-15T15:12:47;1.70;;;1.40;;
56503;SDS011;48812;51.606;-0.114;2023-04-15T15:15:22;1.77;;;1.35;;
56503;SDS011;48812;51.606;-0.114;2023-04-15T15:18:05;1.92;;;1.33;;
56503;SDS011;48812;51.606;-0.114;2023-04-15T15:20:41;2.55;;;1.40;;
56503;SDS011;48812;51.606;-0.114;2023-04-15T15:23:14;2.03;;;1.25;;
56503;SDS011;48812;51.606;-0.114;2023-04-15T15:25:46;2.38;;;1.40;;
56503;SDS011;48812;51.606;-0.114;2023-04-15T15:28:19;2.13;;;1.45;;
56503;SDS011;48812;51.606;-0.114;2023-04-15T15:30:52;2.08;;;1.45;;
56503;SDS011;48812;51.606;-0.114;2023-04-15T15:33:27;1.95;;;1.40;;
56503;SDS011;48812;51.606;-0.114;2023-04-15T15:36:02;1.70;;;1.45;;
56503;SDS011;48812;51.606;-0.114;2023-04-15T15:38:35;1.65;;;1.40;;
56503;SDS011;48812;51.606;-0.114;2023-04-15T15:41:07;1.70;;;1.30;;
56503;SDS011;48812;51.606;-0.114;2023-04-15T15:43:40;1.50;;;1.20;;
56503;SDS011;48812;51.606;-0.114;2023-04-15T15:46:12;1.98;;;1.20;;
56503;SDS011;48812;51.606;-0.114;2023-04-15T15:48:45;1.38;;;1.10;;
56503;SDS011;48812;51.606;-0.114;2023-04-15T15:51:18;1.10;;;1.00;;
56503;SDS011;48812;51.606;-0.114;2023-04-15T15:53:52;1.65;;;1.20;;
56503;SDS011;48812;51.606;-0.114;2023-04-15T15:56:24;1.20;;;1.10;;
56503;SDS011;48812;51.606;-0.114;2023-04-15T15:58:57;1.80;;;1.05;;
56503;SDS011;48812;51.606;-0.114;2023-04-15T16:01:33;2.20;;;0.95;;
56503;SDS011;48812;51.606;-0.114;2023-04-15T16:04:09;1.35;;;1.05;;
56503;SDS011;48812;51.606;-0.114;2023-04-15T16:06:41;1.27;;;1.08;;
56503;SDS011;48812;51.606;-0.114;2023-04-15T16:09:16;1.15;;;1.00;;
56503;SDS011;48812;51.606;-0.114;2023-04-15T16:30:02;1.00;;;0.90;;
56503;SDS011;48812;51.606;-0.114;2023-04-15T16:32:37;2.13;;;1.13;;
56503;SDS011;48812;51.606;-0.114;2023-04-15T16:35:10;0.98;;;0.88;;
56503;SDS011;48812;51.606;-0.114;2023-04-15T16:37:47;1.48;;;1.00;;
56503;SDS011;48812;51.606;-0.114;2023-04-15T16:40:19;1.67;;;1.05;;
56503;SDS011;48812;51.606;-0.114;2023-04-15T16:42:54;1.73;;;1.00;;
56503;SDS011;48812;51.606;-0.114;2023-04-15T16:45:27;1.27;;;0.98;;
56503;SDS011;48812;51.606;-0.114;2023-04-15T16:47:59;1.45;;;1.10;;
56503;SDS011;48812;51.606;-0.114;2023-04-15T16:50:32;2.47;;;1.10;;
56503;SDS011;48812;51.606;-0.114;2023-04-15T16:53:04;1.45;;;0.90;;
56503;SDS011;48812;51.606;-0.114;2023-04-15T16:55:38;1.10;;;1.00;;
56503;SDS011;48812;51.606;-0.114;2023-04-15T16:58:10;1.55;;;1.10;;
56503;SDS011;48812;51.606;-0.114;2023-04-15T17:00:44;0.95;;;0.85;;
56503;SDS011;48812;51.606;-0.114;2023-04-15T17:03:17;1.15;;;1.05;;
56503;SDS011;48812;51.606;-0.114;2023-04-15T17:05:49;1.23;;;0.98;;
56503;SDS011;48812;51.606;-0.114;2023-04-15T17:08:22;1.23;;;1.00;;
56503;SDS011;48812;51.606;-0.114;2023-04-15T17:10:55;1.02;;;0.93;;
56503;SDS011;48812;51.606;-0.114;2023-04-15T17:13:28;1.40;;;0.88;;
56503;SDS011;48812;51.606;-0.114;2023-04-15T17:17:02;1.10;;;1.00;;
56503;SDS011;48812;51.606;-0.114;2023-04-15T17:24:51;1.42;;;1.00;;
56503;SDS011;48812;51.606;-0.114;2023-04-15T17:27:25;0.90;;;0.90;;
56503;SDS011;48812;51.606;-0.114;2023-04-15T17:29:59;2.33;;;1.10;;
56503;SDS011;48812;51.606;-0.114;2023-04-15T17:32:34;1.40;;;1.17;;
56503;SDS011;48812;51.606;-0.114;2023-04-15T17:35:10;1.10;;;1.00;;
56503;SDS011;48812;51.606;-0.114;2023-04-15T17:37:42;1.10;;;1.00;;
56503;SDS011;48812;51.606;-0.114;2023-04-15T17:40:18;1.25;;;0.98;;
56503;SDS011;48812;51.606;-0.114;2023-04-15T17:42:52;1.70;;;1.20;;
56503;SDS011;48812;51.606;-0.114;2023-04-15T17:45:24;1.17;;;0.90;;
56503;SDS011;48812;51.606;-0.114;2023-04-15T17:47:59;1.50;;;1.10;;
56503;SDS011;48812;51.606;-0.114;2023-04-15T17:50:39;1.25;;;1.00;;
56503;SDS011;48812;51.606;-0.114;2023-04-15T17:54:37;1.27;;;0.90;;
56503;SDS011;48812;51.606;-0.114;2023-04-15T17:58:15;1.35;;;1.20;;
56503;SDS011;48812;51.606;-0.114;2023-04-15T18:02:15;1.20;;;1.10;;
56503;SDS011;48812;51.606;-0.114;2023-04-15T18:06:12;1.25;;;1.10;;
56503;SDS011;48812;51.606;-0.114;2023-04-15T18:08:44;1.87;;;1.20;;
56503;SDS011;48812;51.606;-0.114;2023-04-15T18:11:26;2.03;;;1.20;;
56503;SDS011;48812;51.606;-0.114;2023-04-15T18:13:58;1.57;;;1.13;;
56503;SDS011;48812;51.606;-0.114;2023-04-15T18:16:36;1.95;;;1.10;;
56503;SDS011;48812;51.606;-0.114;2023-04-15T18:19:11;1.48;;;1.15;;
56503;SDS011;48812;51.606;-0.114;2023-04-15T18:21:51;1.70;;;1.00;;
56503;SDS011;48812;51.606;-0.114;2023-04-15T18:24:26;1.38;;;1.10;;
56503;SDS011;48812;51.606;-0.114;2023-04-15T18:26:59;1.17;;;1.08;;
56503;SDS011;48812;51.606;-0.114;2023-04-15T18:34:02;2.13;;;1.10;;
56503;SDS011;48812;51.606;-0.114;2023-04-15T18:38:16;1.27;;;1.02;;
56503;SDS011;48812;51.606;-0.114;2023-04-15T18:41:41;1.38;;;1.27;;
56503;SDS011;48812;51.606;-0.114;2023-04-15T18:45:30;1.17;;;1.08;;
56503;SDS011;48812;51.606;-0.114;2023-04-15T18:49:30;1.55;;;1.10;;
56503;SDS011;48812;51.606;-0.114;2023-04-15T18:53:57;1.30;;;1.20;;
56503;SDS011;48812;51.606;-0.114;2023-04-15T19:01:39;1.65;;;1.10;;
56503;SDS011;48812;51.606;-0.114;2023-04-15T19:05:31;2.47;;;1.30;;
56503;SDS011;48812;51.606;-0.114;2023-04-15T19:08:43;1.55;;;1.40;;
56503;SDS011;48812;51.606;-0.114;2023-04-15T19:16:03;1.55;;;1.20;;
56503;SDS011;48812;51.606;-0.114;2023-04-15T19:18:36;1.40;;;1.30;;
56503;SDS011;48812;51.606;-0.114;2023-04-15T19:21:37;1.65;;;1.23;;
56503;SDS011;48812;51.606;-0.114;2023-04-15T19:29:43;1.88;;;1.52;;
56503;SDS011;48812;51.606;-0.114;2023-04-15T19:33:32;2.60;;;1.30;;
56503;SDS011;48812;51.606;-0.114;2023-04-15T19:36:04;2.00;;;1.40;;
56503;SDS011;48812;51.606;-0.114;2023-04-15T19:38:38;1.63;;;1.50;;
56503;SDS011;48812;51.606;-0.114;2023-04-15T19:41:51;1.70;;;1.50;;
56503;SDS011;48812;51.606;-0.114;2023-04-15T19:45:42;1.67;;;1.50;;
56503;SDS011;48812;51.606;-0.114;2023-04-15T19:49:38;1.50;;;1.40;;
56503;SDS011;48812;51.606;-0.114;2023-04-15T19:53:18;2.78;;;1.50;;
56503;SDS011;48812;51.606;-0.114;2023-04-15T19:56:48;1.67;;;1.42;;
56503;SDS011;48812;51.606;-0.114;2023-04-15T20:00:38;2.03;;;1.50;;
56503;SDS011;48812;51.606;-0.114;2023-04-15T20:03:25;2.50;;;1.85;;